sensor_id;sensor_type;location;lat;lon;timestamp;temperature;humidity
46816;DHT22;32787;53.316;8.670;2023-06-19T00:00:45;21.50;62.50
46816;DHT22;32787;53.316;8.670;2023-06-19T00:03:10;21.40;62.70
46816;DHT22;32787;53.316;8.670;2023-06-19T00:05:36;21.40;62.20
46816;DHT22;32787;53.316;8.670;2023-06-19T00:08:01;21.40;61.80
46816;DHT22;32787;53.316;8.670;2023-06-19T00:10:29;21.30;62.00
46816;DHT22;32787;53.316;8.670;2023-06-19T00:12:54;21.30;62.10
46816;DHT22;32787;53.316;8.670;2023-06-19T00:15:20;21.20;62.30
46816;DHT22;32787;53.316;8.670;2023-06-19T00:17:45;21.30;62.40
46816;DHT22;32787;53.316;8.670;2023-06-19T00:20:11;21.30;62.60
46816;DHT22;32787;53.316;8.670;2023-06-19T00:22:39;21.30;62.80
46816;DHT22;32787;53.316;8.670;2023-06-19T00:25:05;21.20;62.70
46816;DHT22;32787;53.316;8.670;2023-06-19T00:27:30;21.20;63.00
46816;DHT22;32787;53.316;8.670;2023-06-19T00:29:56;21.10;62.90
46816;DHT22;32787;53.316;8.670;2023-06-19T00:32:28;21.10;63.00
46816;DHT22;32787;53.316;8.670;2023-06-19T00:34:54;21.10;62.60
46816;DHT22;32787;53.316;8.670;2023-06-19T00:37:21;21.10;62.30
46816;DHT22;32787;53.316;8.670;2023-06-19T00:39:46;21.10;61.90
46816;DHT22;32787;53.316;8.670;2023-06-19T00:42:12;21.30;61.60
46816;DHT22;32787;53.316;8.670;2023-06-19T00:44:37;21.20;61.80
46816;DHT22;32787;53.316;8.670;2023-06-19T00:47:04;21.30;61.60
46816;DHT22;32787;53.316;8.670;2023-06-19T00:49:30;21.20;61.60
46816;DHT22;32787;53.316;8.670;2023-06-19T00:51:56;21.20;61.40
46816;DHT22;32787;53.316;8.670;2023-06-19T00:54:22;21.10;61.40
46816;DHT22;32787;53.316;8.670;2023-06-19T00:56:48;21.10;61.30
46816;DHT22;32787;53.316;8.670;2023-06-19T00:59:19;21.00;61.60
46816;DHT22;32787;53.316;8.670;2023-06-19T01:01:45;20.90;61.70
46816;DHT22;32787;53.316;8.670;2023-06-19T01:04:12;20.90;61.60
46816;DHT22;32787;53.316;8.670;2023-06-19T01:06:57;20.80;61.80
46816;DHT22;32787;53.316;8.670;2023-06-19T01:09:28;20.80;62.30
46816;DHT22;32787;53.316;8.670;2023-06-19T01:12:08;20.70;62.40
46816;DHT22;32787;53.316;8.670;2023-06-19T01:14:38;20.70;62.70
46816;DHT22;32787;53.316;8.670;2023-06-19T01:17:05;20.70;62.20
46816;DHT22;32787;53.316;8.670;2023-06-19T01:19:31;20.80;61.90
46816;DHT22;32787;53.316;8.670;2023-06-19T01:24:23;20.80;61.90
46816;DHT22;32787;53.316;8.670;2023-06-19T01:26:49;20.90;61.70
46816;DHT22;32787;53.316;8.670;2023-06-19T01:29:15;20.80;61.80
46816;DHT22;32787;53.316;8.670;2023-06-19T01:31:48;20.80;61.80
46816;DHT22;32787;53.316;8.670;2023-06-19T01:34:17;20.80;61.60
46816;DHT22;32787;53.316;8.670;2023-06-19T01:36:46;20.80;61.80
46816;DHT22;32787;53.316;8.670;2023-06-19T01:39:15;20.70;61.90
46816;DHT22;32787;53.316;8.670;2023-06-19T01:41:41;20.80;61.70
46816;DHT22;32787;53.316;8.670;2023-06-19T01:44:08;20.80;61.80
46816;DHT22;32787;53.316;8.670;2023-06-19T01:46:34;21.00;60.80
46816;DHT22;32787;53.316;8.670;2023-06-19T01:49:00;21.00;60.80
46816;DHT22;32787;53.316;8.670;2023-06-19T01:51:26;20.90;61.20
46816;DHT22;32787;53.316;8.670;2023-06-19T01:53:51;20.90;60.40
46816;DHT22;32787;53.316;8.670;2023-06-19T01:56:17;21.10;60.80
46816;DHT22;32787;53.316;8.670;2023-06-19T01:58:42;21.00;60.50
46816;DHT22;32787;53.316;8.670;2023-06-19T02:01:08;21.00;60.60
46816;DHT22;32787;53.316;8.670;2023-06-19T02:03:34;21.00;60.60
46816;DHT22;32787;53.316;8.670;2023-06-19T02:05:59;21.00;60.40
46816;DHT22;32787;53.316;8.670;2023-06-19T02:08:25;21.00;60.40
46816;DHT22;32787;53.316;8.670;2023-06-19T02:10:50;20.90;60.40
46816;DHT22;32787;53.316;8.670;2023-06-19T02:13:16;20.80;60.60
46816;DHT22;32787;53.316;8.670;2023-06-19T02:15:42;20.80;60.70
46816;DHT22;32787;53.316;8.670;2023-06-19T02:18:08;20.80;60.60
46816;DHT22;32787;53.316;8.670;2023-06-19T02:20:34;20.80;60.80
46816;DHT22;32787;53.316;8.670;2023-06-19T02:22:59;20.80;60.20
46816;DHT22;32787;53.316;8.670;2023-06-19T02:25:25;20.80;60.00
46816;DHT22;32787;53.316;8.670;2023-06-19T02:27:51;20.80;60.10
46816;DHT22;32787;53.316;8.670;2023-06-19T02:30:16;20.80;60.30
46816;DHT22;32787;53.316;8.670;2023-06-19T02:32:42;20.90;60.10
46816;DHT22;32787;53.316;8.670;2023-06-19T02:35:09;20.90;60.10
46816;DHT22;32787;53.316;8.670;2023-06-19T02:37:35;20.80;60.40
46816;DHT22;32787;53.316;8.670;2023-06-19T02:40:04;20.80;60.10
46816;DHT22;32787;53.316;8.670;2023-06-19T02:42:30;20.70;60.60
46816;DHT22;32787;53.316;8.670;2023-06-19T02:44:56;20.80;60.50
46816;DHT22;32787;53.316;8.670;2023-06-19T02:47:29;20.90;60.20
46816;DHT22;32787;53.316;8.670;2023-06-19T02:49:54;20.80;60.60
46816;DHT22;32787;53.316;8.670;2023-06-19T02:52:20;20.80;61.10
46816;DHT22;32787;53.316;8.670;2023-06-19T02:54:46;20.80;59.60
46816;DHT22;32787;53.316;8.670;2023-06-19T02:57:12;20.90;60.20
46816;DHT22;32787;53.316;8.670;2023-06-19T02:59:37;20.90;60.00
46816;DHT22;32787;53.316;8.670;2023-06-19T03:02:03;20.90;59.90
46816;DHT22;32787;53.316;8.670;2023-06-19T03:04:29;20.80;59.30
46816;DHT22;32787;53.316;8.670;2023-06-19T03:06:54;20.90;59.80
46816;DHT22;32787;53.316;8.670;2023-06-19T03:09:20;21.00;59.10
46816;DHT22;32787;53.316;8.670;2023-06-19T03:11:46;21.10;58.70
46816;DHT22;32787;53.316;8.670;2023-06-19T03:14:11;20.90;59.80
46816;DHT22;32787;53.316;8.670;2023-06-19T03:16:37;21.00;59.20
46816;DHT22;32787;53.316;8.670;2023-06-19T03:19:02;21.10;60.20
46816;DHT22;32787;53.316;8.670;2023-06-19T03:21:28;21.00;60.70
46816;DHT22;32787;53.316;8.670;2023-06-19T03:23:54;20.80;59.50
46816;DHT22;32787;53.316;8.670;2023-06-19T03:26:23;20.80;60.40
46816;DHT22;32787;53.316;8.670;2023-06-19T03:28:50;21.00;59.10
46816;DHT22;32787;53.316;8.670;2023-06-19T03:31:16;21.00;58.00
46816;DHT22;32787;53.316;8.670;2023-06-19T03:33:41;21.20;57.60
46816;DHT22;32787;53.316;8.670;2023-06-19T03:36:07;21.10;57.50
46816;DHT22;32787;53.316;8.670;2023-06-19T03:38:33;21.10;57.30
46816;DHT22;32787;53.316;8.670;2023-06-19T03:40:58;21.10;57.80
46816;DHT22;32787;53.316;8.670;2023-06-19T03:43:24;21.00;57.80
46816;DHT22;32787;53.316;8.670;2023-06-19T03:45:50;21.00;58.30
46816;DHT22;32787;53.316;8.670;2023-06-19T03:48:16;21.10;58.90
46816;DHT22;32787;53.316;8.670;2023-06-19T03:50:42;21.20;58.30
46816;DHT22;32787;53.316;8.670;2023-06-19T03:53:08;21.10;59.00
46816;DHT22;32787;53.316;8.670;2023-06-19T03:55:34;21.10;57.30
46816;DHT22;32787;53.316;8.670;2023-06-19T03:57:59;21.20;56.80
46816;DHT22;32787;53.316;8.670;2023-06-19T04:00:25;21.00;56.80
46816;DHT22;32787;53.316;8.670;2023-06-19T04:02:51;21.00;56.50
46816;DHT22;32787;53.316;8.670;2023-06-19T04:05:17;21.10;56.70
46816;DHT22;32787;53.316;8.670;2023-06-19T04:07:43;21.10;57.10
46816;DHT22;32787;53.316;8.670;2023-06-19T04:10:09;21.10;56.80
46816;DHT22;32787;53.316;8.670;2023-06-19T04:12:37;21.10;56.50
46816;DHT22;32787;53.316;8.670;2023-06-19T04:15:02;21.10;56.60
46816;DHT22;32787;53.316;8.670;2023-06-19T04:17:28;21.20;56.80
46816;DHT22;32787;53.316;8.670;2023-06-19T04:19:54;21.10;58.60
46816;DHT22;32787;53.316;8.670;2023-06-19T04:22:19;21.10;59.40
46816;DHT22;32787;53.316;8.670;2023-06-19T04:24:45;21.10;60.60
46816;DHT22;32787;53.316;8.670;2023-06-19T04:27:10;20.90;61.10
46816;DHT22;32787;53.316;8.670;2023-06-19T04:29:37;20.80;61.60
46816;DHT22;32787;53.316;8.670;2023-06-19T04:32:02;21.00;61.40
46816;DHT22;32787;53.316;8.670;2023-06-19T04:34:37;21.00;61.20
46816;DHT22;32787;53.316;8.670;2023-06-19T04:37:02;20.80;61.50
46816;DHT22;32787;53.316;8.670;2023-06-19T04:39:28;21.00;61.90
46816;DHT22;32787;53.316;8.670;2023-06-19T04:41:54;20.90;61.70
46816;DHT22;32787;53.316;8.670;2023-06-19T04:44:19;20.80;62.10
46816;DHT22;32787;53.316;8.670;2023-06-19T04:46:45;20.80;62.30
46816;DHT22;32787;53.316;8.670;2023-06-19T04:49:10;21.00;61.60
46816;DHT22;32787;53.316;8.670;2023-06-19T04:51:36;21.00;61.40
46816;DHT22;32787;53.316;8.670;2023-06-19T04:54:02;20.80;61.00
46816;DHT22;32787;53.316;8.670;2023-06-19T04:56:28;20.80;61.60
46816;DHT22;32787;53.316;8.670;2023-06-19T04:58:55;20.90;61.30
46816;DHT22;32787;53.316;8.670;2023-06-19T05:01:21;21.00;61.20
46816;DHT22;32787;53.316;8.670;2023-06-19T05:03:53;20.80;60.70
46816;DHT22;32787;53.316;8.670;2023-06-19T05:06:19;20.80;60.80
46816;DHT22;32787;53.316;8.670;2023-06-19T05:08:44;20.80;61.80
46816;DHT22;32787;53.316;8.670;2023-06-19T05:11:10;20.80;61.60
46816;DHT22;32787;53.316;8.670;2023-06-19T05:13:35;20.70;61.60
46816;DHT22;32787;53.316;8.670;2023-06-19T05:16:01;20.70;61.50
46816;DHT22;32787;53.316;8.670;2023-06-19T05:18:27;20.70;62.20
46816;DHT22;32787;53.316;8.670;2023-06-19T05:20:52;20.70;62.40
46816;DHT22;32787;53.316;8.670;2023-06-19T05:23:18;21.00;63.20
46816;DHT22;32787;53.316;8.670;2023-06-19T05:25:43;20.90;66.20
46816;DHT22;32787;53.316;8.670;2023-06-19T05:28:09;20.70;67.70
46816;DHT22;32787;53.316;8.670;2023-06-19T05:30:35;20.50;68.60
46816;DHT22;32787;53.316;8.670;2023-06-19T05:33:01;20.40;68.70
46816;DHT22;32787;53.316;8.670;2023-06-19T05:35:27;20.40;68.60
46816;DHT22;32787;53.316;8.670;2023-06-19T05:37:52;20.30;69.30
46816;DHT22;32787;53.316;8.670;2023-06-19T05:40:18;20.30;69.50
46816;DHT22;32787;53.316;8.670;2023-06-19T05:42:44;20.40;68.40
46816;DHT22;32787;53.316;8.670;2023-06-19T05:45:10;20.40;68.20
46816;DHT22;32787;53.316;8.670;2023-06-19T05:47:36;20.40;68.50
46816;DHT22;32787;53.316;8.670;2023-06-19T05:50:02;20.50;68.70
46816;DHT22;32787;53.316;8.670;2023-06-19T05:52:28;20.50;69.40
46816;DHT22;32787;53.316;8.670;2023-06-19T05:54:53;20.60;70.40
46816;DHT22;32787;53.316;8.670;2023-06-19T05:57:19;20.50;68.10
46816;DHT22;32787;53.316;8.670;2023-06-19T05:59:48;20.50;68.30
46816;DHT22;32787;53.316;8.670;2023-06-19T06:02:14;20.50;67.40
46816;DHT22;32787;53.316;8.670;2023-06-19T06:04:40;20.60;67.30
46816;DHT22;32787;53.316;8.670;2023-06-19T06:07:06;20.70;67.30
46816;DHT22;32787;53.316;8.670;2023-06-19T06:09:31;20.70;66.80
46816;DHT22;32787;53.316;8.670;2023-06-19T06:11:58;20.80;68.00
46816;DHT22;32787;53.316;8.670;2023-06-19T06:14:25;20.90;69.10
46816;DHT22;32787;53.316;8.670;2023-06-19T06:16:50;21.00;69.80
46816;DHT22;32787;53.316;8.670;2023-06-19T06:19:16;21.10;68.60
46816;DHT22;32787;53.316;8.670;2023-06-19T06:21:41;21.10;69.00
46816;DHT22;32787;53.316;8.670;2023-06-19T06:24:07;21.30;66.10
46816;DHT22;32787;53.316;8.670;2023-06-19T06:26:33;21.20;67.00
46816;DHT22;32787;53.316;8.670;2023-06-19T06:28:58;21.20;69.10
46816;DHT22;32787;53.316;8.670;2023-06-19T06:31:24;21.10;69.40
46816;DHT22;32787;53.316;8.670;2023-06-19T06:33:50;21.10;68.90
46816;DHT22;32787;53.316;8.670;2023-06-19T06:36:16;21.30;69.00
46816;DHT22;32787;53.316;8.670;2023-06-19T06:38:41;21.50;69.30
46816;DHT22;32787;53.316;8.670;2023-06-19T06:41:07;21.70;69.30
46816;DHT22;32787;53.316;8.670;2023-06-19T06:43:33;21.80;66.90
46816;DHT22;32787;53.316;8.670;2023-06-19T06:45:59;21.80;64.90
46816;DHT22;32787;53.316;8.670;2023-06-19T06:48:25;21.90;64.60
46816;DHT22;32787;53.316;8.670;2023-06-19T06:50:51;22.10;64.50
46816;DHT22;32787;53.316;8.670;2023-06-19T06:53:27;22.20;63.80
46816;DHT22;32787;53.316;8.670;2023-06-19T06:55:59;22.30;64.60
46816;DHT22;32787;53.316;8.670;2023-06-19T06:58:28;22.40;64.80
46816;DHT22;32787;53.316;8.670;2023-06-19T07:00:55;22.40;64.10
46816;DHT22;32787;53.316;8.670;2023-06-19T07:03:21;22.40;63.20
46816;DHT22;32787;53.316;8.670;2023-06-19T07:05:50;22.50;62.40
46816;DHT22;32787;53.316;8.670;2023-06-19T07:08:16;22.60;62.40
46816;DHT22;32787;53.316;8.670;2023-06-19T07:10:41;22.70;62.30
46816;DHT22;32787;53.316;8.670;2023-06-19T07:13:07;22.70;62.40
46816;DHT22;32787;53.316;8.670;2023-06-19T07:15:33;22.90;63.00
46816;DHT22;32787;53.316;8.670;2023-06-19T07:17:58;23.00;61.70
46816;DHT22;32787;53.316;8.670;2023-06-19T07:20:24;23.00;60.70
46816;DHT22;32787;53.316;8.670;2023-06-19T07:22:51;23.20;59.80
46816;DHT22;32787;53.316;8.670;2023-06-19T07:25:18;23.10;59.00
46816;DHT22;32787;53.316;8.670;2023-06-19T07:27:44;23.10;59.90
46816;DHT22;32787;53.316;8.670;2023-06-19T07:30:10;23.30;60.10
46816;DHT22;32787;53.316;8.670;2023-06-19T07:32:37;23.50;63.70
46816;DHT22;32787;53.316;8.670;2023-06-19T07:35:04;23.30;62.20
46816;DHT22;32787;53.316;8.670;2023-06-19T07:37:30;23.20;62.50
46816;DHT22;32787;53.316;8.670;2023-06-19T07:39:56;23.40;60.20
46816;DHT22;32787;53.316;8.670;2023-06-19T07:42:21;23.50;58.70
46816;DHT22;32787;53.316;8.670;2023-06-19T07:44:47;23.70;59.70
46816;DHT22;32787;53.316;8.670;2023-06-19T07:47:16;23.60;60.20
46816;DHT22;32787;53.316;8.670;2023-06-19T07:49:41;23.70;60.10
46816;DHT22;32787;53.316;8.670;2023-06-19T07:52:08;23.70;59.40
46816;DHT22;32787;53.316;8.670;2023-06-19T07:54:36;23.80;58.10
46816;DHT22;32787;53.316;8.670;2023-06-19T07:57:02;23.80;58.50
46816;DHT22;32787;53.316;8.670;2023-06-19T07:59:27;23.90;58.90
46816;DHT22;32787;53.316;8.670;2023-06-19T08:01:53;24.30;58.00
46816;DHT22;32787;53.316;8.670;2023-06-19T08:04:19;24.50;56.80
46816;DHT22;32787;53.316;8.670;2023-06-19T08:06:44;24.60;57.70
46816;DHT22;32787;53.316;8.670;2023-06-19T08:09:10;24.60;57.00
46816;DHT22;32787;53.316;8.670;2023-06-19T08:11:35;24.60;57.20
46816;DHT22;32787;53.316;8.670;2023-06-19T08:14:02;24.60;57.80
46816;DHT22;32787;53.316;8.670;2023-06-19T08:16:28;24.70;57.60
46816;DHT22;32787;53.316;8.670;2023-06-19T08:18:54;24.80;56.70
46816;DHT22;32787;53.316;8.670;2023-06-19T08:21:19;24.80;56.80
46816;DHT22;32787;53.316;8.670;2023-06-19T08:23:47;24.90;55.60
46816;DHT22;32787;53.316;8.670;2023-06-19T08:26:13;25.00;55.90
46816;DHT22;32787;53.316;8.670;2023-06-19T08:28:39;25.50;54.50
46816;DHT22;32787;53.316;8.670;2023-06-19T08:31:06;25.80;53.40
46816;DHT22;32787;53.316;8.670;2023-06-19T08:33:34;25.80;54.90
46816;DHT22;32787;53.316;8.670;2023-06-19T08:36:00;26.00;53.50
46816;DHT22;32787;53.316;8.670;2023-06-19T08:38:26;26.10;54.40
46816;DHT22;32787;53.316;8.670;2023-06-19T08:40:51;25.90;53.30
46816;DHT22;32787;53.316;8.670;2023-06-19T08:43:17;25.70;53.70
46816;DHT22;32787;53.316;8.670;2023-06-19T08:45:43;25.70;54.70
46816;DHT22;32787;53.316;8.670;2023-06-19T08:48:13;25.80;56.30
46816;DHT22;32787;53.316;8.670;2023-06-19T08:50:39;25.90;53.10
46816;DHT22;32787;53.316;8.670;2023-06-19T08:53:04;25.70;55.30
46816;DHT22;32787;53.316;8.670;2023-06-19T08:55:30;26.00;54.40
46816;DHT22;32787;53.316;8.670;2023-06-19T08:57:55;26.00;54.50
46816;DHT22;32787;53.316;8.670;2023-06-19T09:00:26;26.10;54.20
46816;DHT22;32787;53.316;8.670;2023-06-19T09:02:52;26.20;53.30
46816;DHT22;32787;53.316;8.670;2023-06-19T09:05:19;26.10;54.30
46816;DHT22;32787;53.316;8.670;2023-06-19T09:07:57;26.00;53.40
46816;DHT22;32787;53.316;8.670;2023-06-19T09:10:24;26.10;54.70
46816;DHT22;32787;53.316;8.670;2023-06-19T09:13:03;25.90;54.50
46816;DHT22;32787;53.316;8.670;2023-06-19T09:15:36;26.10;54.60
46816;DHT22;32787;53.316;8.670;2023-06-19T09:18:03;26.20;54.20
46816;DHT22;32787;53.316;8.670;2023-06-19T09:20:29;26.20;54.80
46816;DHT22;32787;53.316;8.670;2023-06-19T09:22:56;26.40;55.20
46816;DHT22;32787;53.316;8.670;2023-06-19T09:25:22;26.20;54.00
46816;DHT22;32787;53.316;8.670;2023-06-19T09:27:49;26.20;53.90
46816;DHT22;32787;53.316;8.670;2023-06-19T09:30:17;26.30;54.40
46816;DHT22;32787;53.316;8.670;2023-06-19T09:32:43;26.50;53.90
46816;DHT22;32787;53.316;8.670;2023-06-19T09:35:09;26.20;54.70
46816;DHT22;32787;53.316;8.670;2023-06-19T09:37:35;26.20;54.30
46816;DHT22;32787;53.316;8.670;2023-06-19T09:40:03;26.30;53.70
46816;DHT22;32787;53.316;8.670;2023-06-19T09:42:37;26.10;54.50
46816;DHT22;32787;53.316;8.670;2023-06-19T09:45:05;26.10;54.80
46816;DHT22;32787;53.316;8.670;2023-06-19T09:47:39;25.80;56.80
46816;DHT22;32787;53.316;8.670;2023-06-19T09:50:06;25.90;56.10
46816;DHT22;32787;53.316;8.670;2023-06-19T09:52:32;26.10;55.60
46816;DHT22;32787;53.316;8.670;2023-06-19T09:55:02;26.00;54.50
46816;DHT22;32787;53.316;8.670;2023-06-19T09:57:28;26.10;54.80
46816;DHT22;32787;53.316;8.670;2023-06-19T09:59:56;26.20;54.50
46816;DHT22;32787;53.316;8.670;2023-06-19T10:02:23;26.40;54.00
46816;DHT22;32787;53.316;8.670;2023-06-19T10:04:52;26.50;54.90
46816;DHT22;32787;53.316;8.670;2023-06-19T10:07:33;26.70;55.60
46816;DHT22;32787;53.316;8.670;2023-06-19T10:10:06;26.70;55.00
46816;DHT22;32787;53.316;8.670;2023-06-19T10:12:42;26.60;56.40
46816;DHT22;32787;53.316;8.670;2023-06-19T10:15:18;26.50;57.30
46816;DHT22;32787;53.316;8.670;2023-06-19T10:17:50;26.30;57.30
46816;DHT22;32787;53.316;8.670;2023-06-19T10:20:33;26.40;56.70
46816;DHT22;32787;53.316;8.670;2023-06-19T10:26:01;25.60;58.40
46816;DHT22;32787;53.316;8.670;2023-06-19T10:28:32;25.70;58.50
46816;DHT22;32787;53.316;8.670;2023-06-19T10:31:00;25.90;59.60
46816;DHT22;32787;53.316;8.670;2023-06-19T10:33:32;25.60;59.10
46816;DHT22;32787;53.316;8.670;2023-06-19T10:35:59;25.60;59.50
46816;DHT22;32787;53.316;8.670;2023-06-19T10:38:26;25.60;59.80
46816;DHT22;32787;53.316;8.670;2023-06-19T10:40:52;25.70;59.20
46816;DHT22;32787;53.316;8.670;2023-06-19T10:43:22;25.30;60.20
46816;DHT22;32787;53.316;8.670;2023-06-19T10:45:50;25.40;60.40
46816;DHT22;32787;53.316;8.670;2023-06-19T10:48:23;25.70;61.60
46816;DHT22;32787;53.316;8.670;2023-06-19T10:50:50;25.60;60.50
46816;DHT22;32787;53.316;8.670;2023-06-19T10:53:32;25.50;61.30
46816;DHT22;32787;53.316;8.670;2023-06-19T10:56:02;25.80;61.30
46816;DHT22;32787;53.316;8.670;2023-06-19T10:58:28;26.20;59.20
46816;DHT22;32787;53.316;8.670;2023-06-19T11:00:55;26.00;60.10
46816;DHT22;32787;53.316;8.670;2023-06-19T11:03:21;26.00;60.80
46816;DHT22;32787;53.316;8.670;2023-06-19T11:05:47;26.20;59.80
46816;DHT22;32787;53.316;8.670;2023-06-19T11:08:23;27.00;57.10
46816;DHT22;32787;53.316;8.670;2023-06-19T11:10:50;27.30;55.80
46816;DHT22;32787;53.316;8.670;2023-06-19T11:13:20;27.50;57.40
46816;DHT22;32787;53.316;8.670;2023-06-19T11:15:47;27.40;55.70
46816;DHT22;32787;53.316;8.670;2023-06-19T11:18:16;26.80;56.60
46816;DHT22;32787;53.316;8.670;2023-06-19T11:20:49;26.50;56.40
46816;DHT22;32787;53.316;8.670;2023-06-19T11:23:17;27.00;56.50
46816;DHT22;32787;53.316;8.670;2023-06-19T11:25:43;27.30;54.30
46816;DHT22;32787;53.316;8.670;2023-06-19T11:28:13;27.30;54.60
46816;DHT22;32787;53.316;8.670;2023-06-19T11:30:39;27.00;55.00
46816;DHT22;32787;53.316;8.670;2023-06-19T11:33:35;27.20;54.70
46816;DHT22;32787;53.316;8.670;2023-06-19T11:36:01;27.20;54.50
46816;DHT22;32787;53.316;8.670;2023-06-19T11:38:28;26.70;55.90
46816;DHT22;32787;53.316;8.670;2023-06-19T11:40:57;26.30;56.50
46816;DHT22;32787;53.316;8.670;2023-06-19T11:43:30;26.10;57.70
46816;DHT22;32787;53.316;8.670;2023-06-19T11:46:06;26.10;58.20
46816;DHT22;32787;53.316;8.670;2023-06-19T11:48:36;26.00;58.50
46816;DHT22;32787;53.316;8.670;2023-06-19T11:51:02;26.30;60.10
46816;DHT22;32787;53.316;8.670;2023-06-19T11:53:28;26.00;59.30
46816;DHT22;32787;53.316;8.670;2023-06-19T11:55:53;26.10;59.50
46816;DHT22;32787;53.316;8.670;2023-06-19T11:58:19;26.00;57.50
46816;DHT22;32787;53.316;8.670;2023-06-19T12:00:46;25.50;58.70
46816;DHT22;32787;53.316;8.670;2023-06-19T12:03:11;25.30;59.90
46816;DHT22;32787;53.316;8.670;2023-06-19T12:05:37;24.70;61.50
46816;DHT22;32787;53.316;8.670;2023-06-19T12:08:03;24.60;63.10
46816;DHT22;32787;53.316;8.670;2023-06-19T12:10:30;24.50;63.50
46816;DHT22;32787;53.316;8.670;2023-06-19T12:12:56;24.80;62.40
46816;DHT22;32787;53.316;8.670;2023-06-19T12:15:22;24.70;62.70
46816;DHT22;32787;53.316;8.670;2023-06-19T12:17:48;24.70;62.10
46816;DHT22;32787;53.316;8.670;2023-06-19T12:20:13;24.30;63.60
46816;DHT22;32787;53.316;8.670;2023-06-19T12:22:40;24.20;64.00
46816;DHT22;32787;53.316;8.670;2023-06-19T12:25:06;24.00;64.60
46816;DHT22;32787;53.316;8.670;2023-06-19T12:27:32;23.90;65.00
46816;DHT22;32787;53.316;8.670;2023-06-19T12:29:57;24.10;64.70
46816;DHT22;32787;53.316;8.670;2023-06-19T12:32:23;24.30;65.00
46816;DHT22;32787;53.316;8.670;2023-06-19T12:34:49;24.70;64.80
46816;DHT22;32787;53.316;8.670;2023-06-19T12:37:20;24.70;64.20
46816;DHT22;32787;53.316;8.670;2023-06-19T12:39:47;24.40;63.90
46816;DHT22;32787;53.316;8.670;2023-06-19T12:42:12;24.30;64.40
46816;DHT22;32787;53.316;8.670;2023-06-19T12:44:40;24.30;64.50
46816;DHT22;32787;53.316;8.670;2023-06-19T12:47:06;24.40;64.70
46816;DHT22;32787;53.316;8.670;2023-06-19T12:49:32;24.60;64.70
46816;DHT22;32787;53.316;8.670;2023-06-19T12:51:58;24.70;63.20
46816;DHT22;32787;53.316;8.670;2023-06-19T12:54:23;24.80;62.90
46816;DHT22;32787;53.316;8.670;2023-06-19T12:56:49;24.90;64.10
46816;DHT22;32787;53.316;8.670;2023-06-19T12:59:16;24.80;63.40
46816;DHT22;32787;53.316;8.670;2023-06-19T13:01:42;24.80;63.70
46816;DHT22;32787;53.316;8.670;2023-06-19T13:04:07;25.00;63.20
46816;DHT22;32787;53.316;8.670;2023-06-19T13:06:33;25.50;61.20
46816;DHT22;32787;53.316;8.670;2023-06-19T13:08:59;27.00;59.00
46816;DHT22;32787;53.316;8.670;2023-06-19T13:11:25;29.30;52.80
46816;DHT22;32787;53.316;8.670;2023-06-19T13:13:51;29.40;51.70
46816;DHT22;32787;53.316;8.670;2023-06-19T13:16:16;30.20;49.50
46816;DHT22;32787;53.316;8.670;2023-06-19T13:18:44;30.30;49.20
46816;DHT22;32787;53.316;8.670;2023-06-19T13:21:10;29.30;50.90
46816;DHT22;32787;53.316;8.670;2023-06-19T13:23:36;28.80;52.10
46816;DHT22;32787;53.316;8.670;2023-06-19T13:26:01;28.70;52.80
46816;DHT22;32787;53.316;8.670;2023-06-19T13:28:27;29.50;51.90
46816;DHT22;32787;53.316;8.670;2023-06-19T13:30:53;31.20;48.60
46816;DHT22;32787;53.316;8.670;2023-06-19T13:33:18;32.40;44.10
46816;DHT22;32787;53.316;8.670;2023-06-19T13:35:44;33.10;42.10
46816;DHT22;32787;53.316;8.670;2023-06-19T13:38:09;33.10;42.00
46816;DHT22;32787;53.316;8.670;2023-06-19T13:40:36;32.90;42.80
46816;DHT22;32787;53.316;8.670;2023-06-19T13:43:02;33.00;41.40
46816;DHT22;32787;53.316;8.670;2023-06-19T13:45:29;33.00;40.20
46816;DHT22;32787;53.316;8.670;2023-06-19T13:47:56;33.20;40.30
46816;DHT22;32787;53.316;8.670;2023-06-19T13:50:23;33.20;41.00
46816;DHT22;32787;53.316;8.670;2023-06-19T13:52:49;32.70;41.70
46816;DHT22;32787;53.316;8.670;2023-06-19T13:55:15;33.00;39.60
46816;DHT22;32787;53.316;8.670;2023-06-19T13:57:41;32.30;41.30
46816;DHT22;32787;53.316;8.670;2023-06-19T14:00:09;31.40;43.30
46816;DHT22;32787;53.316;8.670;2023-06-19T14:02:38;31.80;42.10
46816;DHT22;32787;53.316;8.670;2023-06-19T14:05:06;32.10;43.60
46816;DHT22;32787;53.316;8.670;2023-06-19T14:07:32;32.80;41.80
46816;DHT22;32787;53.316;8.670;2023-06-19T14:09:58;32.50;43.10
46816;DHT22;32787;53.316;8.670;2023-06-19T14:12:24;31.70;45.40
46816;DHT22;32787;53.316;8.670;2023-06-19T14:14:49;30.50;45.60
46816;DHT22;32787;53.316;8.670;2023-06-19T14:17:15;30.20;46.70
46816;DHT22;32787;53.316;8.670;2023-06-19T14:19:41;30.30;47.40
46816;DHT22;32787;53.316;8.670;2023-06-19T14:22:06;30.70;47.20
46816;DHT22;32787;53.316;8.670;2023-06-19T14:24:32;31.10;44.50
46816;DHT22;32787;53.316;8.670;2023-06-19T14:26:57;30.80;46.30
46816;DHT22;32787;53.316;8.670;2023-06-19T14:29:23;30.10;46.60
46816;DHT22;32787;53.316;8.670;2023-06-19T14:31:51;29.20;47.60
46816;DHT22;32787;53.316;8.670;2023-06-19T14:34:18;29.00;49.00
46816;DHT22;32787;53.316;8.670;2023-06-19T14:36:44;29.60;47.10
46816;DHT22;32787;53.316;8.670;2023-06-19T14:39:09;29.70;48.00
46816;DHT22;32787;53.316;8.670;2023-06-19T14:41:37;30.00;45.60
46816;DHT22;32787;53.316;8.670;2023-06-19T14:44:03;30.00;46.00
46816;DHT22;32787;53.316;8.670;2023-06-19T14:46:30;30.80;44.40
46816;DHT22;32787;53.316;8.670;2023-06-19T14:48:57;32.00;41.50
46816;DHT22;32787;53.316;8.670;2023-06-19T14:51:24;32.70;40.70
46816;DHT22;32787;53.316;8.670;2023-06-19T14:53:50;32.70;39.70
46816;DHT22;32787;53.316;8.670;2023-06-19T14:56:16;32.80;38.70
46816;DHT22;32787;53.316;8.670;2023-06-19T14:58:42;33.80;39.30
46816;DHT22;32787;53.316;8.670;2023-06-19T15:01:08;33.70;37.10
46816;DHT22;32787;53.316;8.670;2023-06-19T15:03:34;33.20;35.90
46816;DHT22;32787;53.316;8.670;2023-06-19T15:06:00;32.50;37.20
46816;DHT22;32787;53.316;8.670;2023-06-19T15:08:26;32.20;37.40
46816;DHT22;32787;53.316;8.670;2023-06-19T15:10:51;32.70;39.40
46816;DHT22;32787;53.316;8.670;2023-06-19T15:13:17;33.00;36.50
46816;DHT22;32787;53.316;8.670;2023-06-19T15:15:44;31.90;38.80
46816;DHT22;32787;53.316;8.670;2023-06-19T15:18:10;32.30;38.60
46816;DHT22;32787;53.316;8.670;2023-06-19T15:20:36;32.50;39.20
46816;DHT22;32787;53.316;8.670;2023-06-19T15:23:07;31.50;39.60
46816;DHT22;32787;53.316;8.670;2023-06-19T15:25:33;31.10;40.40
46816;DHT22;32787;53.316;8.670;2023-06-19T15:27:58;30.70;41.70
46816;DHT22;32787;53.316;8.670;2023-06-19T15:30:24;31.40;39.80
46816;DHT22;32787;53.316;8.670;2023-06-19T15:32:50;32.20;38.90